Time;durP1;ratioP1;P1;durP2;ratioP2;P2;SDS_P1;SDS_P2;PMS_P1;PMS_P2;Temp;Humidity;BMP_temperature;BMP_pressure;BME280_temperature;BME280_humidity;BME280_pressure;Samples;Min_cycle;Max_cycle;Signal;HPM_P1;HPM_P2
2023/07/24 00:02:25;;;;;;;4.93;3.07;;;18.60;99.90;;;;;;5095850;28;20314;-67
2023/07/24 00:04:50;;;;;;;5.80;3.50;;;18.60;99.90;;;;;;5094571;28;20117;-67
2023/07/24 00:07:16;;;;;;;7.57;4.40;;;18.60;99.90;;;;;;5095570;28;20307;-66
2023/07/24 00:09:42;;;;;;;7.83;3.43;;;18.60;99.90;;;;;;5094922;28;20027;-66
2023/07/24 00:12:08;;;;;;;4.37;3.10;;;18.60;99.90;;;;;;5095861;28;20024;-82
2023/07/24 00:14:33;;;;;;;6.00;3.47;;;18.60;99.90;;;;;;5095246;28;20433;-67
2023/07/24 00:16:59;;;;;;;6.07;3.47;;;18.50;99.90;;;;;;5093962;28;20032;-67
2023/07/24 00:19:25;;;;;;;5.50;3.47;;;18.50;99.90;;;;;;5089088;28;20044;-67
2023/07/24 00:21:50;;;;;;;4.67;2.83;;;18.50;99.90;;;;;;5093081;28;20425;-72
2023/07/24 00:24:16;;;;;;;7.10;3.73;;;18.50;99.90;;;;;;5094033;28;20066;-66
2023/07/24 00:26:42;;;;;;;6.63;4.27;;;18.50;99.90;;;;;;5091012;28;20027;-66
2023/07/24 00:29:07;;;;;;;5.23;3.47;;;18.40;99.90;;;;;;5092681;28;20425;-67
2023/07/24 00:31:33;;;;;;;5.00;3.10;;;18.40;99.90;;;;;;5093199;28;20035;-67
2023/07/24 00:34:00;;;;;;;4.83;2.90;;;18.30;99.90;;;;;;5094522;28;20072;-65
2023/07/24 00:36:26;;;;;;;;;;;18.30;99.90;;;;;;5091932;28;20035;-67
2023/07/24 00:38:51;;;;;;;7.55;3.67;;;18.30;99.90;;;;;;5081824;28;19916;-68
2023/07/24 00:41:17;;;;;;;6.00;3.33;;;18.20;99.90;;;;;;5091439;28;20318;-67
2023/07/24 00:43:43;;;;;;;6.50;3.57;;;18.20;99.90;;;;;;5081652;28;20073;-67
2023/07/24 00:46:10;;;;;;;6.07;3.97;;;18.20;99.90;;;;;;5082644;28;20323;-66
2023/07/24 00:48:37;;;;;;;5.75;3.40;;;18.10;99.90;;;;;;5093694;28;20020;-66
2023/07/24 00:51:03;;;;;;;;;;;18.10;99.90;;;;;;5091869;28;20028;-66
2023/07/24 00:53:28;;;;;;;5.00;2.95;;;18.00;99.90;;;;;;5092095;28;19969;-67
2023/07/24 00:55:54;;;;;;;5.00;3.10;;;18.00;99.90;;;;;;5092547;28;20112;-67
2023/07/24 00:58:21;;;;;;;4.83;3.40;;;18.00;99.90;;;;;;5092783;28;20075;-67
2023/07/24 01:00:47;;;;;;;4.65;2.85;;;18.00;99.90;;;;;;5089854;28;20039;-66
2023/07/24 01:03:13;;;;;;;5.13;3.07;;;17.90;99.90;;;;;;5092392;28;20077;-67
2023/07/24 01:05:40;;;;;;;5.87;3.67;;;17.90;99.90;;;;;;5095108;28;20040;-66
2023/07/24 01:08:07;;;;;;;4.60;3.15;;;17.90;99.90;;;;;;5075481;28;20363;-79
2023/07/24 01:10:32;;;;;;;6.35;2.85;;;18.00;99.90;;;;;;5094568;28;20034;-66
2023/07/24 01:13:22;;;;;;;7.00;3.73;;;18.00;99.90;;;;;;5093772;28;20122;-81
2023/07/24 01:15:56;;;;;;;5.10;3.53;;;18.00;99.90;;;;;;5094656;28;20032;-66
2023/07/24 01:18:24;;;;;;;4.75;3.53;;;18.00;99.90;;;;;;5090156;28;20032;-68
2023/07/24 01:20:57;;;;;;;7.13;3.10;;;18.00;99.90;;;;;;5085289;28;20024;-67
2023/07/24 01:23:52;;;;;;;5.22;3.38;;;18.00;99.90;;;;;;5093612;28;20349;-67
2023/07/24 01:26:19;;;;;;;5.35;3.53;;;17.90;99.90;;;;;;5087875;28;20024;-67
2023/07/24 01:28:45;;;;;;;6.78;3.95;;;17.90;99.90;;;;;;5092959;28;20396;-67
2023/07/24 01:31:11;;;;;;;5.28;3.42;;;17.90;99.90;;;;;;5094406;28;20059;-69
2023/07/24 01:33:37;;;;;;;7.07;3.35;;;17.90;99.90;;;;;;5096922;28;20429;-66
2023/07/24 01:36:05;;;;;;;5.32;3.17;;;17.90;99.90;;;;;;5091692;28;20431;-67
2023/07/24 01:38:34;;;;;;;4.50;3.15;;;17.90;99.90;;;;;;5093516;28;20035;-71
2023/07/24 01:41:01;;;;;;;7.60;3.50;;;17.80;99.90;;;;;;5079972;28;20024;-67
2023/07/24 01:43:28;;;;;;;6.85;3.78;;;17.90;99.90;;;;;;5097965;28;20303;-67
2023/07/24 01:45:54;;;;;;;5.60;3.20;;;17.90;99.90;;;;;;5092158;28;20028;-67
2023/07/24 01:48:19;;;;;;;4.90;3.22;;;17.90;99.90;;;;;;5098063;28;20323;-67
2023/07/24 01:50:45;;;;;;;4.67;3.10;;;17.90;99.90;;;;;;5096829;28;20024;-66
2023/07/24 01:53:11;;;;;;;5.97;3.33;;;17.90;99.90;;;;;;5097860;28;20036;-68
2023/07/24 01:55:37;;;;;;;4.97;3.40;;;17.90;99.90;;;;;;5096939;28;20304;-80
2023/07/24 01:58:02;;;;;;;5.57;3.60;;;17.90;99.90;;;;;;5092904;28;20048;-67
2023/07/24 02:00:28;;;;;;;5.50;3.87;;;17.90;99.90;;;;;;5083787;28;20049;-82
2023/07/24 02:02:54;;;;;;;12.33;4.03;;;17.90;99.90;;;;;;5078601;28;20031;-66
2023/07/24 02:05:19;;;;;;;4.37;3.10;;;17.90;99.90;;;;;;5086737;28;20032;-67
2023/07/24 02:07:45;;;;;;;5.87;3.43;;;17.80;99.90;;;;;;5091094;28;20027;-66
2023/07/24 02:10:11;;;;;;;4.80;3.17;;;17.80;99.90;;;;;;5082976;28;20068;-69
2023/07/24 02:12:36;;;;;;;5.10;3.67;;;17.80;99.90;;;;;;5097959;28;20327;-67
2023/07/24 02:15:02;;;;;;;5.90;3.37;;;17.80;99.90;;;;;;5096064;28;20024;-67
2023/07/24 02:17:28;;;;;;;12.37;3.77;;;17.80;99.90;;;;;;5075529;28;20062;-66
2023/07/24 02:19:54;;;;;;;5.33;3.57;;;17.80;99.90;;;;;;5087770;28;20740;-67
2023/07/24 02:22:19;;;;;;;6.70;3.70;;;17.70;99.90;;;;;;5094146;28;20024;-67
2023/07/24 02:24:45;;;;;;;6.77;4.07;;;17.80;99.90;;;;;;5097546;28;20016;-67
2023/07/24 02:27:16;;;;;;;5.13;3.43;;;17.80;99.90;;;;;;5094844;28;20086;-71
2023/07/24 02:29:41;;;;;;;6.82;3.75;;;17.70;99.90;;;;;;5090290;28;20051;-67
2023/07/24 02:32:07;;;;;;;7.30;3.67;;;17.70;99.90;;;;;;5082612;28;20482;-81
2023/07/24 02:34:33;;;;;;;8.40;3.97;;;17.70;99.90;;;;;;5094473;28;20028;-67
2023/07/24 02:36:59;;;;;;;6.30;4.40;;;17.70;99.90;;;;;;5091392;28;20033;-67
2023/07/24 02:39:24;;;;;;;6.50;3.40;;;17.70;99.90;;;;;;5097145;28;20020;-67
2023/07/24 02:41:50;;;;;;;8.03;4.73;;;17.70;99.90;;;;;;5096685;28;20081;-66
2023/07/24 02:44:16;;;;;;;8.17;4.00;;;17.60;99.90;;;;;;5095269;28;20027;-82
2023/07/24 02:46:41;;;;;;;5.77;4.00;;;17.60;99.90;;;;;;5083627;28;20051;-67
2023/07/24 02:49:07;;;;;;;7.20;4.30;;;17.60;99.90;;;;;;5097024;28;20047;-67
2023/07/24 02:51:33;;;;;;;7.07;3.97;;;17.60;99.90;;;;;;5087391;28;20330;-67
2023/07/24 02:53:59;;;;;;;6.30;3.83;;;17.60;99.90;;;;;;5094680;28;20044;-67
2023/07/24 02:56:25;;;;;;;7.00;3.75;;;17.60;99.90;;;;;;5096577;28;20020;-67
2023/07/24 02:58:50;;;;;;;5.50;3.60;;;17.60;99.90;;;;;;5097011;28;20105;-67
2023/07/24 03:01:16;;;;;;;7.97;3.80;;;17.50;99.90;;;;;;5096244;28;20028;-76
2023/07/24 03:03:42;;;;;;;12.23;4.40;;;17.50;99.90;;;;;;5087925;28;20357;-67
2023/07/24 03:06:08;;;;;;;5.97;3.40;;;17.60;99.90;;;;;;5096796;28;20357;-84
2023/07/24 03:08:33;;;;;;;8.03;3.80;;;17.50;99.90;;;;;;5094639;28;20024;-67
2023/07/24 03:11:02;;;;;;;5.97;4.03;;;17.50;99.90;;;;;;5085152;28;20100;-81
2023/07/24 03:13:28;;;;;;;7.38;3.95;;;17.50;99.90;;;;;;5087588;28;20357;-66
2023/07/24 03:15:55;;;;;;;5.82;3.58;;;17.60;99.90;;;;;;5088765;28;20040;-67
2023/07/24 03:18:21;;;;;;;7.53;4.20;;;17.60;99.90;;;;;;5089677;28;20025;-67
2023/07/24 03:20:47;;;;;;;10.13;4.27;;;17.60;99.90;;;;;;5064598;28;20039;-66
2023/07/24 03:23:13;;;;;;;7.00;3.93;;;17.60;99.90;;;;;;5091420;28;20016;-67
2023/07/24 03:25:39;;;;;;;5.30;3.57;;;17.50;99.90;;;;;;5095677;28;20310;-67
2023/07/24 03:28:04;;;;;;;7.10;4.03;;;17.50;99.90;;;;;;5096386;28;20020;-68
2023/07/24 03:30:30;;;;;;;9.03;4.20;;;17.60;99.90;;;;;;5082037;28;20024;-66
2023/07/24 03:32:57;;;;;;;7.33;3.93;;;17.60;99.90;;;;;;5092696;28;20024;-66
2023/07/24 03:35:23;;;;;;;7.50;4.40;;;17.60;99.90;;;;;;5093864;28;20371;-74
2023/07/24 03:37:49;;;;;;;8.25;3.78;;;17.60;99.90;;;;;;5096318;28;20102;-66
2023/07/24 03:40:15;;;;;;;11.30;4.80;;;17.50;99.90;;;;;;5096006;28;20059;-66
2023/07/24 03:42:41;;;;;;;6.80;3.05;;;17.50;99.90;;;;;;5087376;28;20029;-67
2023/07/24 03:45:08;;;;;;;9.02;4.40;;;17.50;99.90;;;;;;5085529;28;20396;-86
2023/07/24 03:47:34;;;;;;;7.63;3.55;;;17.50;99.90;;;;;;5075455;28;20025;-66
2023/07/24 03:49:59;;;;;;;7.47;3.93;;;17.40;99.90;;;;;;5083715;28;20020;-66
2023/07/24 03:52:25;;;;;;;7.37;3.90;;;17.40;99.90;;;;;;5088328;28;20351;-67
2023/07/24 03:54:52;;;;;;;8.17;3.87;;;17.40;99.90;;;;;;5089266;28;20104;-66
2023/07/24 03:57:17;;;;;;;9.85;3.92;;;17.50;99.90;;;;;;5095840;28;20395;-66
2023/07/24 03:59:43;;;;;;;9.40;3.57;;;17.50;99.90;;;;;;5095110;28;20047;-67
2023/07/24 04:02:09;;;;;;;6.50;3.90;;;17.50;99.90;;;;;;5093800;28;20028;-82
2023/07/24 04:04:35;;;;;;;8.77;4.27;;;17.50;99.90;;;;;;5094544;28;20499;-67
2023/07/24 04:07:01;;;;;;;6.07;3.33;;;17.40;99.90;;;;;;5090587;28;20036;-67
2023/07/24 04:09:27;;;;;;;8.53;3.80;;;17.40;99.90;;;;;;5086295;28;20032;-67
2023/07/24 04:11:52;;;;;;;6.10;3.27;;;17.40;99.90;;;;;;5091210;28;20024;-67
2023/07/24 04:14:18;;;;;;;8.50;3.57;;;17.40;99.90;;;;;;5079723;28;20108;-67
2023/07/24 04:16:44;;;;;;;4.87;3.33;;;17.40;99.90;;;;;;5094865;28;20030;-67
2023/07/24 04:19:10;;;;;;;9.20;3.90;;;17.40;99.90;;;;;;5095456;28;20130;-82
2023/07/24 04:21:36;;;;;;;4.33;2.97;;;17.40;99.90;;;;;;5081938;28;20067;-67
2023/07/24 04:24:02;;;;;;;8.70;3.33;;;17.40;99.90;;;;;;5083615;28;20020;-66
2023/07/24 04:26:27;;;;;;;11.33;3.73;;;17.40;99.90;;;;;;5094539;28;20028;-67
2023/07/24 04:28:54;;;;;;;8.37;3.57;;;17.30;99.90;;;;;;5094265;28;20031;-68
2023/07/24 04:31:20;;;;;;;5.45;2.80;;;17.30;99.90;;;;;;5089142;28;20089;-67
2023/07/24 04:33:45;;;;;;;5.90;3.37;;;17.20;99.90;;;;;;5088196;28;20020;-67
2023/07/24 04:36:11;;;;;;;7.97;3.27;;;17.20;99.90;;;;;;5096091;28;20026;-68
2023/07/24 04:38:37;;;;;;;8.80;3.67;;;17.20;99.90;;;;;;5095132;28;20024;-67
2023/07/24 04:41:03;;;;;;;5.77;3.53;;;17.10;99.90;;;;;;5093261;28;20028;-67
2023/07/24 04:43:29;;;;;;;6.10;3.13;;;17.10;99.90;;;;;;5094474;28;20031;-67
2023/07/24 04:45:55;;;;;;;10.98;3.55;;;17.10;99.90;;;;;;5093402;28;20441;-68
2023/07/24 04:48:20;;;;;;;10.90;3.20;;;17.10;99.90;;;;;;5095138;28;20056;-67
2023/07/24 04:50:46;;;;;;;10.10;3.83;;;17.10;99.90;;;;;;5091554;28;20055;-67
2023/07/24 04:53:12;;;;;;;8.37;4.17;;;17.10;99.90;;;;;;5092949;28;20092;-68
2023/07/24 04:55:37;;;;;;;9.80;3.57;;;17.00;99.90;;;;;;5094261;28;20059;-67
2023/07/24 04:58:03;;;;;;;5.60;3.30;;;17.10;99.90;;;;;;5094184;28;20024;-68
2023/07/24 05:00:29;;;;;;;7.77;3.57;;;17.10;99.90;;;;;;5093010;28;20032;-68
2023/07/24 05:02:54;;;;;;;8.83;3.87;;;17.10;99.90;;;;;;5093902;28;20058;-82
2023/07/24 05:05:20;;;;;;;8.03;4.10;;;17.10;99.90;;;;;;5092045;28;20028;-82
2023/07/24 05:07:46;;;;;;;12.60;3.97;;;17.10;99.90;;;;;;5094454;28;20423;-67
2023/07/24 05:10:13;;;;;;;13.33;3.63;;;17.10;99.90;;;;;;5079863;28;20405;-68
2023/07/24 05:12:42;;;;;;;8.85;3.67;;;17.10;99.90;;;;;;5074650;28;20063;-68
2023/07/24 05:15:08;;;;;;;9.77;3.88;;;17.10;99.90;;;;;;5089149;28;20031;-67
2023/07/24 05:17:33;;;;;;;9.00;3.47;;;17.20;99.90;;;;;;5087042;28;20024;-68
2023/07/24 05:19:59;;;;;;;7.40;3.40;;;17.20;99.90;;;;;;5083927;28;20039;-69
2023/07/24 05:22:25;;;;;;;8.67;3.43;;;17.30;99.90;;;;;;5105239;28;20036;-67
2023/07/24 05:24:50;;;;;;;6.33;3.60;;;17.30;99.90;;;;;;5094558;28;20036;-67
2023/07/24 05:27:16;;;;;;;12.80;4.57;;;17.40;99.90;;;;;;5090635;28;20305;-66
2023/07/24 05:29:42;;;;;;;9.33;4.20;;;17.50;99.90;;;;;;5082359;28;20107;-68
2023/07/24 05:32:08;;;;;;;7.20;3.80;;;17.60;99.90;;;;;;5093301;28;20311;-79
2023/07/24 05:34:33;;;;;;;5.20;3.40;;;17.60;99.90;;;;;;5094764;28;20032;-68
2023/07/24 05:36:59;;;;;;;8.77;4.03;;;17.60;99.90;;;;;;5094282;28;20430;-67
2023/07/24 05:39:25;;;;;;;11.13;4.20;;;17.70;99.90;;;;;;5074120;28;20106;-66
2023/07/24 05:41:50;;;;;;;9.47;3.90;;;17.80;99.90;;;;;;5089996;28;20028;-67
2023/07/24 05:44:16;;;;;;;8.93;3.67;;;17.80;99.90;;;;;;5092850;28;20036;-68
2023/07/24 05:46:42;;;;;;;6.73;3.67;;;17.80;99.90;;;;;;5091439;28;20058;-67
2023/07/24 05:49:07;;;;;;;10.50;4.43;;;17.80;99.90;;;;;;5080603;28;20017;-66
2023/07/24 05:51:33;;;;;;;9.20;4.30;;;17.80;99.90;;;;;;5089450;28;20028;-67
2023/07/24 05:53:59;;;;;;;9.40;4.07;;;17.80;99.90;;;;;;5083926;28;20048;-67
2023/07/24 05:56:24;;;;;;;10.07;4.07;;;17.90;99.90;;;;;;5093561;28;20040;-67
2023/07/24 05:58:50;;;;;;;9.40;4.10;;;17.80;99.90;;;;;;5097356;28;20032;-66
2023/07/24 06:01:16;;;;;;;8.27;3.30;;;17.90;99.90;;;;;;5076878;28;20035;-80
2023/07/24 06:03:41;;;;;;;12.63;4.37;;;17.90;99.90;;;;;;5094391;28;20024;-69
2023/07/24 06:06:07;;;;;;;11.97;3.57;;;18.00;99.90;;;;;;5093345;28;20095;-86
2023/07/24 06:08:32;;;;;;;8.33;3.73;;;18.00;99.90;;;;;;5080165;28;20051;-79
2023/07/24 06:10:58;;;;;;;7.53;3.50;;;18.10;99.90;;;;;;5080488;28;20047;-79
2023/07/24 06:13:24;;;;;;;7.23;3.07;;;18.20;99.90;;;;;;5087836;28;20024;-67
2023/07/24 06:15:51;;;;;;;7.83;3.83;;;18.20;99.90;;;;;;5081267;28;20027;-67
2023/07/24 06:18:17;;;;;;;13.65;3.97;;;18.20;99.90;;;;;;5083934;28;20436;-67
2023/07/24 06:20:43;;;;;;;5.57;3.10;;;18.30;99.90;;;;;;5101661;28;20096;-68
2023/07/24 06:23:08;;;;;;;5.33;2.97;;;18.30;99.90;;;;;;5087365;28;20110;-81
2023/07/24 06:25:34;;;;;;;14.13;3.70;;;18.30;99.90;;;;;;5097182;28;20017;-67
2023/07/24 06:28:00;;;;;;;7.60;3.30;;;18.30;99.90;;;;;;5078195;28;20030;-66
2023/07/24 06:30:26;;;;;;;9.23;3.33;;;18.40;99.90;;;;;;5094030;28;20028;-67
2023/07/24 06:32:51;;;;;;;9.47;3.03;;;18.40;99.90;;;;;;5080089;28;20287;-67
2023/07/24 06:35:17;;;;;;;8.23;3.10;;;18.40;99.90;;;;;;5078795;28;20123;-66
2023/07/24 06:37:43;;;;;;;7.70;3.10;;;18.40;99.90;;;;;;5096221;28;20026;-66
2023/07/24 06:40:09;;;;;;;5.57;2.23;;;18.50;99.90;;;;;;5097690;28;20395;-83
2023/07/24 06:42:35;;;;;;;9.13;3.17;;;18.60;99.90;;;;;;5093392;28;20107;-67
2023/07/24 06:45:00;;;;;;;12.57;3.50;;;18.70;99.90;;;;;;5096425;28;20162;-67
2023/07/24 06:47:26;;;;;;;11.33;3.70;;;18.80;99.90;;;;;;5094476;28;20318;-78
2023/07/24 06:49:52;;;;;;;12.03;3.63;;;18.90;99.90;;;;;;5087320;28;20287;-67
2023/07/24 06:52:18;;;;;;;9.17;3.07;;;18.90;99.90;;;;;;5094696;28;20035;-66
2023/07/24 06:54:43;;;;;;;20.40;4.60;;;19.00;99.90;;;;;;5095542;28;20456;-67
2023/07/24 06:57:09;;;;;;;9.27;3.50;;;19.00;99.90;;;;;;5095475;28;20468;-86
2023/07/24 06:59:35;;;;;;;7.37;3.13;;;19.10;99.90;;;;;;5076794;28;20031;-67
2023/07/24 07:02:00;;;;;;;12.40;3.60;;;19.10;99.90;;;;;;5092317;28;20081;-67
2023/07/24 07:04:26;;;;;;;10.57;3.63;;;19.20;99.90;;;;;;5095672;28;20414;-85
2023/07/24 07:06:51;;;;;;;6.60;3.13;;;19.30;99.90;;;;;;5094275;28;20028;-66
2023/07/24 07:09:17;;;;;;;9.70;3.50;;;19.30;99.90;;;;;;5097271;28;20028;-67
2023/07/24 07:11:43;;;;;;;7.80;2.90;;;19.30;99.90;;;;;;5064458;28;20063;-66
2023/07/24 07:14:09;;;;;;;7.23;2.77;;;19.40;99.90;;;;;;5089943;28;20024;-79
2023/07/24 07:16:35;;;;;;;6.63;2.72;;;19.40;99.90;;;;;;5090293;28;20063;-66
2023/07/24 07:19:01;;;;;;;7.68;2.70;;;19.40;99.90;;;;;;5087139;28;20437;-81
2023/07/24 07:21:26;;;;;;;6.23;2.70;;;19.50;99.90;;;;;;5083962;28;20116;-67
2023/07/24 07:23:52;;;;;;;12.37;3.57;;;19.50;99.90;;;;;;5074248;28;20024;-68
2023/07/24 07:26:18;;;;;;;8.13;3.23;;;19.50;99.90;;;;;;5084799;28;20024;-67
2023/07/24 07:28:44;;;;;;;8.90;2.97;;;19.60;99.90;;;;;;5087434;28;20092;-67
2023/07/24 07:31:11;;;;;;;7.13;2.72;;;19.60;99.90;;;;;;5085037;28;20020;-83
2023/07/24 07:33:36;;;;;;;5.72;2.78;;;19.70;99.90;;;;;;5087368;28;20077;-68
2023/07/24 07:36:03;;;;;;;7.53;2.53;;;19.80;99.90;;;;;;5084196;28;20024;-66
2023/07/24 07:38:29;;;;;;;5.00;2.40;;;19.90;99.90;;;;;;5083999;28;20048;-67
2023/07/24 07:40:55;;;;;;;6.30;2.90;;;20.00;99.90;;;;;;5085035;28;20028;-66
2023/07/24 07:43:21;;;;;;;5.83;2.67;;;20.20;99.90;;;;;;5079349;28;20097;-76
2023/07/24 07:45:48;;;;;;;6.60;2.72;;;20.30;99.90;;;;;;5088596;28;20024;-66
2023/07/24 07:48:13;;;;;;;9.02;3.05;;;20.30;99.90;;;;;;5091671;28;20432;-67
2023/07/24 07:50:39;;;;;;;10.97;3.53;;;20.30;99.90;;;;;;5092709;28;20055;-78
2023/07/24 07:53:05;;;;;;;6.37;2.60;;;20.30;99.90;;;;;;5083427;28;20056;-66
2023/07/24 07:55:30;;;;;;;7.97;2.97;;;20.30;99.90;;;;;;5095283;28;20059;-83
2023/07/24 07:57:56;;;;;;;9.53;2.97;;;20.30;99.90;;;;;;5091090;28;20039;-66
2023/07/24 08:00:22;;;;;;;9.20;3.40;;;20.20;99.90;;;;;;5090426;28;20462;-68
2023/07/24 08:02:48;;;;;;;7.63;3.22;;;20.20;99.90;;;;;;5075875;28;20035;-67
2023/07/24 08:05:14;;;;;;;8.23;2.38;;;20.10;99.90;;;;;;5090444;28;20117;-68
2023/07/24 08:07:39;;;;;;;3.67;2.57;;;20.00;99.90;;;;;;5093414;28;20095;-67
2023/07/24 08:10:06;;;;;;;6.17;2.90;;;20.10;99.90;;;;;;5094620;28;20024;-66
2023/07/24 08:12:32;;;;;;;;;;;20.10;99.90;;;;;;5094028;28;20027;-68
2023/07/24 08:14:57;;;;;;;7.28;2.90;;;20.10;99.90;;;;;;5091919;28;20314;-66
2023/07/24 08:17:23;;;;;;;7.87;2.47;;;20.10;99.90;;;;;;5087250;28;20028;-67
2023/07/24 08:19:49;;;;;;;8.13;2.65;;;20.30;99.90;;;;;;5089523;28;20028;-66
2023/07/24 08:22:14;;;;;;;5.17;2.70;;;20.60;99.90;;;;;;5089951;28;20036;-68
2023/07/24 08:24:40;;;;;;;5.20;2.30;;;20.80;99.90;;;;;;5094877;28;20024;-66
2023/07/24 08:27:06;;;;;;;5.90;2.93;;;21.10;99.90;;;;;;5089837;28;20052;-67
2023/07/24 08:29:33;;;;;;;6.90;2.70;;;21.10;99.90;;;;;;5083522;28;20020;-67
2023/07/24 08:31:58;;;;;;;;;;;21.10;99.90;;;;;;5084907;28;20020;-67
2023/07/24 08:34:24;;;;;;;5.50;2.05;;;21.10;99.90;;;;;;5091552;28;19918;-67
2023/07/24 08:36:50;;;;;;;3.53;2.63;;;21.20;99.90;;;;;;5076160;28;20020;-67
2023/07/24 08:39:15;;;;;;;6.40;2.90;;;21.50;99.90;;;;;;5090788;28;20302;-66
2023/07/24 08:41:41;;;;;;;4.10;2.63;;;21.60;99.90;;;;;;5094391;28;20039;-67
2023/07/24 08:44:08;;;;;;;5.57;2.90;;;21.70;99.90;;;;;;5083844;28;20065;-80
2023/07/24 08:46:38;;;;;;;;;;;21.80;99.90;;;;;;5093880;28;20315;-66
2023/07/24 08:49:04;;;;;;;3.03;2.00;;;22.00;99.90;;;;;;5076131;28;19915;-66
2023/07/24 08:51:31;;;;;;;9.55;2.65;;;21.90;99.90;;;;;;5088980;28;20300;-67
2023/07/24 08:53:59;;;;;;;3.95;2.42;;;22.00;99.90;;;;;;5092171;28;20050;-67
2023/07/24 08:56:24;;;;;;;3.03;1.60;;;22.20;99.90;;;;;;5090013;28;20028;-67
2023/07/24 08:58:50;;;;;;;4.90;2.23;;;22.40;99.90;;;;;;5095085;28;20028;-67
2023/07/24 09:01:16;;;;;;;5.30;1.98;;;22.70;99.90;;;;;;5088647;28;20107;-67
2023/07/24 09:03:42;;;;;;;6.10;2.40;;;22.80;99.90;;;;;;5075399;28;20085;-67
2023/07/24 09:06:07;;;;;;;9.23;2.53;;;22.70;99.90;;;;;;5083866;28;20017;-82
2023/07/24 09:08:35;;;;;;;4.37;2.10;;;22.60;99.90;;;;;;5082525;28;20043;-67
2023/07/24 09:11:03;;;;;;;6.53;3.17;;;22.60;99.90;;;;;;5093396;28;20032;-67
2023/07/24 09:13:30;;;;;;;5.80;2.85;;;22.50;99.90;;;;;;5094612;28;20025;-88
2023/07/24 09:15:55;;;;;;;6.60;2.50;;;22.30;99.90;;;;;;5083376;28;20012;-66
2023/07/24 09:18:21;;;;;;;7.73;3.23;;;22.10;99.90;;;;;;5092472;28;20108;-66
2023/07/24 09:20:48;;;;;;;7.55;2.95;;;21.90;99.90;;;;;;5094491;28;20019;-66
2023/07/24 09:23:15;;;;;;;7.75;3.13;;;21.70;99.90;;;;;;5091736;28;20044;-67
2023/07/24 09:25:43;;;;;;;10.85;3.60;;;21.50;99.90;;;;;;5092982;28;20306;-68
2023/07/24 09:28:18;;;;;;;4.90;3.58;;;21.30;99.90;;;;;;5089868;28;20407;-84
2023/07/24 09:30:58;;;;;;;5.63;3.43;;;21.20;99.90;;;;;;5090570;28;20411;-66
2023/07/24 09:33:37;;;;;;;6.78;3.55;;;21.20;99.90;;;;;;5089956;28;20314;-68
2023/07/24 09:36:04;;;;;;;6.28;3.63;;;21.10;99.90;;;;;;5093928;28;20016;-66
2023/07/24 09:38:30;;;;;;;7.30;3.60;;;21.10;99.90;;;;;;5093349;28;20415;-66
2023/07/24 09:40:57;;;;;;;6.93;3.80;;;21.20;99.90;;;;;;5086113;28;20094;-66
2023/07/24 09:43:24;;;;;;;;;;;21.10;99.90;;;;;;5086386;28;20032;-68
2023/07/24 09:45:50;;;;;;;6.63;3.60;;;20.90;99.90;;;;;;5081518;28;19910;-67
2023/07/24 09:48:17;;;;;;;;;;;20.80;99.90;;;;;;5084673;28;20152;-67
2023/07/24 09:50:48;;;;;;;6.22;3.63;;;20.70;99.90;;;;;;5087798;28;19911;-85
2023/07/24 09:53:36;;;;;;;7.63;3.10;;;21.10;99.90;;;;;;5073496;28;20048;-68
2023/07/24 09:56:05;;;;;;;7.25;4.35;;;21.30;99.90;;;;;;5074310;28;20059;-79
2023/07/24 09:58:38;;;;;;;7.78;3.55;;;21.30;99.90;;;;;;5070772;28;20795;-67
2023/07/24 10:01:06;;;;;;;9.73;3.50;;;21.20;99.90;;;;;;5065520;28;20028;-67
2023/07/24 10:03:45;;;;;;;5.13;2.92;;;21.00;99.90;;;;;;5076091;28;20117;-78
2023/07/24 10:06:11;;;;;;;6.63;3.50;;;20.90;99.90;;;;;;5074714;28;20020;-81
2023/07/24 10:08:38;;;;;;;8.82;3.53;;;20.80;99.90;;;;;;5076679;28;20052;-67
2023/07/24 10:11:04;;;;;;;8.13;3.45;;;20.80;99.90;;;;;;5077571;28;20067;-68
2023/07/24 10:13:30;;;;;;;5.77;3.73;;;20.90;99.90;;;;;;5076244;28;20048;-67
2023/07/24 10:15:57;;;;;;;12.07;4.28;;;21.10;99.90;;;;;;5076655;28;20037;-68
2023/07/24 10:18:27;;;;;;;7.43;3.35;;;21.40;99.90;;;;;;5074108;28;20351;-67
2023/07/24 10:21:05;;;;;;;7.18;3.60;;;21.60;99.90;;;;;;5076599;28;20032;-66
2023/07/24 10:23:34;;;;;;;6.50;3.17;;;21.50;99.90;;;;;;5077219;28;20052;-83
2023/07/24 10:26:04;;;;;;;8.98;3.60;;;21.40;99.90;;;;;;5059362;28;20028;-86
2023/07/24 10:28:40;;;;;;;7.15;3.90;;;21.30;99.90;;;;;;5073031;28;20093;-66
2023/07/24 10:31:10;;;;;;;5.43;3.40;;;21.30;99.90;;;;;;5073538;28;20108;-67
2023/07/24 10:33:43;;;;;;;9.55;3.45;;;21.30;99.90;;;;;;5073004;28;20107;-68
2023/07/24 10:36:10;;;;;;;6.32;3.28;;;21.60;99.90;;;;;;5055255;28;20315;-67
2023/07/24 10:38:47;;;;;;;9.57;3.53;;;21.90;99.90;;;;;;5063005;28;20017;-66
2023/07/24 10:41:13;;;;;;;9.35;3.25;;;22.00;99.90;;;;;;5063000;28;20029;-69
2023/07/24 10:43:51;;;;;;;5.93;2.80;;;22.00;99.90;;;;;;5064018;28;20106;-68
2023/07/24 10:46:18;;;;;;;6.38;3.17;;;21.80;99.90;;;;;;5065109;28;20032;-81
2023/07/24 10:48:49;;;;;;;9.60;3.50;;;21.80;99.90;;;;;;5060256;28;20051;-66
2023/07/24 10:51:15;;;;;;;5.70;3.03;;;22.00;99.90;;;;;;5062829;28;20016;-67
2023/07/24 10:53:48;;;;;;;9.10;3.28;;;22.20;99.90;;;;;;5080906;28;20050;-68
2023/07/24 10:56:16;;;;;;;3.45;2.45;;;22.40;99.90;;;;;;5089444;28;20024;-67
2023/07/24 10:58:42;;;;;;;3.38;2.65;;;22.60;99.90;;;;;;5093125;28;20019;-69
2023/07/24 11:01:09;;;;;;;5.20;2.73;;;23.00;99.90;;;;;;5074435;28;20013;-77
2023/07/24 11:03:40;;;;;;;5.68;2.30;;;23.30;99.90;;;;;;5088524;28;20028;-66
2023/07/24 11:06:19;;;;;;;3.72;2.50;;;23.40;99.90;;;;;;5088975;28;20474;-67
2023/07/24 11:09:00;;;;;;;4.20;2.40;;;23.40;99.90;;;;;;5084724;28;20070;-67
2023/07/24 11:11:30;;;;;;;5.10;2.63;;;23.10;99.90;;;;;;5086102;28;20107;-67
2023/07/24 11:13:56;;;;;;;6.35;2.80;;;22.80;99.90;;;;;;5088379;28;20033;-66
2023/07/24 11:16:22;;;;;;;4.97;2.38;;;22.50;99.90;;;;;;5090689;28;20495;-67
2023/07/24 11:18:51;;;;;;;2.50;1.77;;;22.40;99.90;;;;;;5086420;28;20024;-67
2023/07/24 11:21:17;;;;;;;2.33;2.00;;;22.60;99.90;;;;;;5090147;28;20046;-67
2023/07/24 11:23:48;;;;;;;3.28;1.98;;;22.90;99.90;;;;;;5096162;28;20012;-67
2023/07/24 11:26:15;;;;;;;4.22;2.40;;;23.20;99.90;;;;;;5094052;28;20028;-69
2023/07/24 11:28:41;;;;;;;4.20;2.22;;;23.40;99.90;;;;;;5095199;28;20032;-66
2023/07/24 11:31:08;;;;;;;3.15;1.88;;;23.70;99.90;;;;;;5093795;28;20030;-80
2023/07/24 11:33:34;;;;;;;5.10;2.95;;;23.80;99.90;;;;;;5087900;28;20115;-67
2023/07/24 11:36:00;;;;;;;6.05;2.70;;;23.90;99.90;;;;;;5085013;28;20338;-67
2023/07/24 11:38:25;;;;;;;3.58;1.95;;;23.80;99.90;;;;;;5076053;28;20073;-67
2023/07/24 11:40:54;;;;;;;3.47;1.77;;;23.50;99.90;;;;;;5073835;28;20028;-68
2023/07/24 11:43:22;;;;;;;4.72;2.40;;;23.30;99.90;;;;;;5094204;28;20363;-67
2023/07/24 11:45:52;;;;;;;3.38;2.33;;;23.00;99.90;;;;;;5090263;28;20074;-67
2023/07/24 11:48:23;;;;;;;4.00;2.22;;;22.60;99.90;;;;;;5092775;28;20032;-67
2023/07/24 11:50:51;;;;;;;4.68;2.10;;;22.40;99.90;;;;;;5094009;28;20099;-67
2023/07/24 11:53:25;;;;;;;2.20;2.00;;;22.30;99.90;;;;;;5094537;28;20059;-66
2023/07/24 11:55:52;;;;;;;3.67;2.10;;;22.20;99.90;;;;;;5089362;28;20107;-67
2023/07/24 11:58:19;;;;;;;3.67;2.03;;;22.30;99.90;;;;;;5095541;28;20028;-67
2023/07/24 12:00:46;;;;;;;2.88;1.83;;;22.40;99.90;;;;;;5094263;28;20035;-67
2023/07/24 12:03:12;;;;;;;8.20;2.10;;;22.60;99.90;;;;;;5095246;28;20105;-67
2023/07/24 12:05:43;;;;;;;4.93;1.80;;;22.60;99.90;;;;;;5089694;28;20080;-65
2023/07/24 12:08:09;;;;;;;2.85;1.45;;;22.60;99.90;;;;;;5089275;28;20439;-78
2023/07/24 12:10:39;;;;;;;1.92;1.73;;;22.60;99.90;;;;;;5087849;28;20429;-68
2023/07/24 12:13:05;;;;;;;3.40;1.98;;;22.50;99.90;;;;;;5095428;28;20426;-67
2023/07/24 12:15:33;;;;;;;2.60;1.83;;;22.50;99.90;;;;;;5090889;28;20642;-68
2023/07/24 12:18:00;;;;;;;2.08;1.52;;;22.70;99.90;;;;;;5090185;28;20043;-78
2023/07/24 12:20:26;;;;;;;2.42;1.77;;;22.70;99.90;;;;;;5090377;28;20478;-68
2023/07/24 12:22:52;;;;;;;1.52;1.20;;;22.80;99.90;;;;;;5091163;28;20495;-67
2023/07/24 12:25:17;;;;;;;5.23;2.17;;;22.90;99.90;;;;;;5086231;28;20028;-67
2023/07/24 12:27:43;;;;;;;5.13;2.00;;;23.10;99.90;;;;;;5093338;28;20031;-67
2023/07/24 12:30:09;;;;;;;2.57;1.63;;;23.40;99.90;;;;;;5088494;28;20020;-78
2023/07/24 12:32:35;;;;;;;3.30;1.67;;;23.50;99.90;;;;;;5089611;28;20025;-68
2023/07/24 12:35:01;;;;;;;1.83;1.40;;;23.70;99.90;;;;;;5091199;28;20043;-82
2023/07/24 12:37:26;;;;;;;5.47;1.40;;;23.50;99.90;;;;;;5094776;28;20107;-67
2023/07/24 12:39:52;;;;;;;1.53;1.43;;;23.30;99.90;;;;;;5095393;28;20314;-66
2023/07/24 12:42:18;;;;;;;2.00;1.47;;;23.30;99.90;;;;;;5091911;28;20276;-67
2023/07/24 12:44:44;;;;;;;1.93;1.13;;;23.50;99.90;;;;;;5094855;28;20248;-66
2023/07/24 12:47:11;;;;;;;1.47;1.37;;;23.30;99.90;;;;;;5091833;28;20367;-80